sensor_id;sensor_type;location;lat;lon;timestamp;temperature;humidity
73133;DHT22;61320;52.008;4.530;2023-04-06T00:00:14;8.20;60.04
73133;DHT22;61320;52.008;4.530;2023-04-06T00:02:39;8.21;60.27
73133;DHT22;61320;52.008;4.530;2023-04-06T00:05:05;8.24;59.67
73133;DHT22;61320;52.008;4.530;2023-04-06T00:07:31;8.25;59.80
73133;DHT22;61320;52.008;4.530;2023-04-06T00:09:58;8.27;59.86
73133;DHT22;61320;52.008;4.530;2023-04-06T00:12:24;8.29;59.14
73133;DHT22;61320;52.008;4.530;2023-04-06T00:14:50;8.31;59.10
73133;DHT22;61320;52.008;4.530;2023-04-06T00:17:15;8.34;59.44
73133;DHT22;61320;52.008;4.530;2023-04-06T00:19:41;8.34;59.14
73133;DHT22;61320;52.008;4.530;2023-04-06T00:22:06;8.31;58.72
73133;DHT22;61320;52.008;4.530;2023-04-06T00:24:32;8.29;58.23
73133;DHT22;61320;52.008;4.530;2023-04-06T00:26:57;8.22;57.81
73133;DHT22;61320;52.008;4.530;2023-04-06T00:29:23;8.21;57.71
73133;DHT22;61320;52.008;4.530;2023-04-06T00:31:48;8.22;58.26
73133;DHT22;61320;52.008;4.530;2023-04-06T00:34:13;8.28;58.22
73133;DHT22;61320;52.008;4.530;2023-04-06T00:36:41;8.28;57.80
73133;DHT22;61320;52.008;4.530;2023-04-06T00:39:06;8.27;57.94
73133;DHT22;61320;52.008;4.530;2023-04-06T00:41:32;8.25;58.12
73133;DHT22;61320;52.008;4.530;2023-04-06T00:43:57;8.27;58.02
73133;DHT22;61320;52.008;4.530;2023-04-06T00:46:23;8.25;58.02
73133;DHT22;61320;52.008;4.530;2023-04-06T00:48:49;8.21;58.44
73133;DHT22;61320;52.008;4.530;2023-04-06T00:51:14;8.21;57.85
73133;DHT22;61320;52.008;4.530;2023-04-06T00:53:40;8.17;57.81
73133;DHT22;61320;52.008;4.530;2023-04-06T00:56:05;8.12;57.91
73133;DHT22;61320;52.008;4.530;2023-04-06T00:58:31;8.10;57.97
73133;DHT22;61320;52.008;4.530;2023-04-06T01:00:58;8.11;58.77
73133;DHT22;61320;52.008;4.530;2023-04-06T01:03:23;8.17;59.05
73133;DHT22;61320;52.008;4.530;2023-04-06T01:05:48;8.15;58.98
73133;DHT22;61320;52.008;4.530;2023-04-06T01:08:14;8.15;59.39
73133;DHT22;61320;52.008;4.530;2023-04-06T01:10:40;8.12;58.81
73133;DHT22;61320;52.008;4.530;2023-04-06T01:13:05;8.17;58.66
73133;DHT22;61320;52.008;4.530;2023-04-06T01:15:33;8.12;58.48
73133;DHT22;61320;52.008;4.530;2023-04-06T01:18:00;8.14;58.22
73133;DHT22;61320;52.008;4.530;2023-04-06T01:20:25;8.17;58.56
73133;DHT22;61320;52.008;4.530;2023-04-06T01:22:51;8.20;58.62
73133;DHT22;61320;52.008;4.530;2023-04-06T01:25:17;8.24;57.78
73133;DHT22;61320;52.008;4.530;2023-04-06T01:27:42;8.21;58.21
73133;DHT22;61320;52.008;4.530;2023-04-06T01:30:08;8.20;58.19
73133;DHT22;61320;52.008;4.530;2023-04-06T01:32:33;8.22;58.52
73133;DHT22;61320;52.008;4.530;2023-04-06T01:34:58;8.24;58.44
73133;DHT22;61320;52.008;4.530;2023-04-06T01:37:24;8.29;58.74
73133;DHT22;61320;52.008;4.530;2023-04-06T01:39:50;8.29;58.49
73133;DHT22;61320;52.008;4.530;2023-04-06T01:42:15;8.31;58.67
73133;DHT22;61320;52.008;4.530;2023-04-06T01:44:41;8.35;58.22
73133;DHT22;61320;52.008;4.530;2023-04-06T01:47:06;8.37;58.16
73133;DHT22;61320;52.008;4.530;2023-04-06T01:49:32;8.38;57.90
73133;DHT22;61320;52.008;4.530;2023-04-06T01:51:57;8.34;57.65
73133;DHT22;61320;52.008;4.530;2023-04-06T01:54:23;8.34;57.60
73133;DHT22;61320;52.008;4.530;2023-04-06T01:56:48;8.35;57.39
73133;DHT22;61320;52.008;4.530;2023-04-06T01:59:15;8.39;57.33
73133;DHT22;61320;52.008;4.530;2023-04-06T02:01:41;8.39;58.04
73133;DHT22;61320;52.008;4.530;2023-04-06T02:04:06;8.41;57.57
73133;DHT22;61320;52.008;4.530;2023-04-06T02:06:32;8.41;56.91
73133;DHT22;61320;52.008;4.530;2023-04-06T02:08:57;8.42;57.35
73133;DHT22;61320;52.008;4.530;2023-04-06T02:11:22;8.39;57.48
73133;DHT22;61320;52.008;4.530;2023-04-06T02:13:48;8.41;57.34
73133;DHT22;61320;52.008;4.530;2023-04-06T02:16:13;8.44;57.81
73133;DHT22;61320;52.008;4.530;2023-04-06T02:18:40;8.46;57.85
73133;DHT22;61320;52.008;4.530;2023-04-06T02:21:05;8.49;57.32
73133;DHT22;61320;52.008;4.530;2023-04-06T02:23:30;8.56;57.17
73133;DHT22;61320;52.008;4.530;2023-04-06T02:25:56;8.56;57.51
73133;DHT22;61320;52.008;4.530;2023-04-06T02:28:21;8.58;58.26
73133;DHT22;61320;52.008;4.530;2023-04-06T02:30:47;8.63;58.32
73133;DHT22;61320;52.008;4.530;2023-04-06T02:33:12;8.62;57.62
73133;DHT22;61320;52.008;4.530;2023-04-06T02:35:37;8.62;57.73
73133;DHT22;61320;52.008;4.530;2023-04-06T02:38:03;8.66;57.76
73133;DHT22;61320;52.008;4.530;2023-04-06T02:40:28;8.70;57.94
73133;DHT22;61320;52.008;4.530;2023-04-06T02:42:54;8.69;57.40
73133;DHT22;61320;52.008;4.530;2023-04-06T02:45:19;8.70;57.99
73133;DHT22;61320;52.008;4.530;2023-04-06T02:47:45;8.70;57.82
73133;DHT22;61320;52.008;4.530;2023-04-06T02:50:11;8.72;57.73
73133;DHT22;61320;52.008;4.530;2023-04-06T02:52:36;8.70;58.25
73133;DHT22;61320;52.008;4.530;2023-04-06T02:55:02;8.72;57.70
73133;DHT22;61320;52.008;4.530;2023-04-06T02:57:27;8.73;57.36
73133;DHT22;61320;52.008;4.530;2023-04-06T02:59:53;8.68;57.61
73133;DHT22;61320;52.008;4.530;2023-04-06T03:02:18;8.70;58.05
73133;DHT22;61320;52.008;4.530;2023-04-06T03:04:44;8.68;57.74
73133;DHT22;61320;52.008;4.530;2023-04-06T03:07:09;8.70;57.24
73133;DHT22;61320;52.008;4.530;2023-04-06T03:09:37;8.69;57.98
73133;DHT22;61320;52.008;4.530;2023-04-06T03:12:03;8.75;57.54
73133;DHT22;61320;52.008;4.530;2023-04-06T03:14:28;8.75;57.28
73133;DHT22;61320;52.008;4.530;2023-04-06T03:16:54;8.75;57.38
73133;DHT22;61320;52.008;4.530;2023-04-06T03:19:19;8.76;57.05
73133;DHT22;61320;52.008;4.530;2023-04-06T03:21:45;8.73;56.78
73133;DHT22;61320;52.008;4.530;2023-04-06T03:24:10;8.73;56.91
73133;DHT22;61320;52.008;4.530;2023-04-06T03:26:36;8.76;57.47
73133;DHT22;61320;52.008;4.530;2023-04-06T03:29:01;8.81;57.81
73133;DHT22;61320;52.008;4.530;2023-04-06T03:31:27;8.84;57.23
73133;DHT22;61320;52.008;4.530;2023-04-06T03:33:52;8.83;57.33
73133;DHT22;61320;52.008;4.530;2023-04-06T03:36:18;8.86;57.20
73133;DHT22;61320;52.008;4.530;2023-04-06T03:38:43;8.86;56.74
73133;DHT22;61320;52.008;4.530;2023-04-06T03:41:09;8.89;56.57
73133;DHT22;61320;52.008;4.530;2023-04-06T03:43:35;8.83;55.65
73133;DHT22;61320;52.008;4.530;2023-04-06T03:46:00;8.83;55.92
73133;DHT22;61320;52.008;4.530;2023-04-06T03:48:26;8.76;54.47
73133;DHT22;61320;52.008;4.530;2023-04-06T03:50:51;8.70;54.39
73133;DHT22;61320;52.008;4.530;2023-04-06T03:53:16;8.70;53.95
73133;DHT22;61320;52.008;4.530;2023-04-06T03:55:42;8.69;54.13
73133;DHT22;61320;52.008;4.530;2023-04-06T03:58:07;8.73;53.99
73133;DHT22;61320;52.008;4.530;2023-04-06T04:00:33;8.77;53.75
73133;DHT22;61320;52.008;4.530;2023-04-06T04:02:58;8.77;54.06
73133;DHT22;61320;52.008;4.530;2023-04-06T04:05:24;8.83;54.24
73133;DHT22;61320;52.008;4.530;2023-04-06T04:07:51;8.86;54.48
73133;DHT22;61320;52.008;4.530;2023-04-06T04:10:17;8.89;54.23
73133;DHT22;61320;52.008;4.530;2023-04-06T04:12:42;8.93;54.37
73133;DHT22;61320;52.008;4.530;2023-04-06T04:15:08;8.93;53.88
73133;DHT22;61320;52.008;4.530;2023-04-06T04:17:33;8.91;54.63
73133;DHT22;61320;52.008;4.530;2023-04-06T04:19:59;8.94;54.58
73133;DHT22;61320;52.008;4.530;2023-04-06T04:22:24;9.04;54.58
73133;DHT22;61320;52.008;4.530;2023-04-06T04:24:50;9.06;54.29
73133;DHT22;61320;52.008;4.530;2023-04-06T04:27:15;9.03;55.07
73133;DHT22;61320;52.008;4.530;2023-04-06T04:29:41;9.03;54.85
73133;DHT22;61320;52.008;4.530;2023-04-06T04:32:06;9.04;55.13
73133;DHT22;61320;52.008;4.530;2023-04-06T04:34:32;9.06;55.13
73133;DHT22;61320;52.008;4.530;2023-04-06T04:36:58;9.08;55.14
73133;DHT22;61320;52.008;4.530;2023-04-06T04:39:23;9.16;56.15
73133;DHT22;61320;52.008;4.530;2023-04-06T04:41:48;9.20;55.65
73133;DHT22;61320;52.008;4.530;2023-04-06T04:44:14;9.26;55.55
73133;DHT22;61320;52.008;4.530;2023-04-06T04:46:40;9.30;55.69
73133;DHT22;61320;52.008;4.530;2023-04-06T04:49:06;9.28;55.31
73133;DHT22;61320;52.008;4.530;2023-04-06T04:51:32;9.26;55.80
73133;DHT22;61320;52.008;4.530;2023-04-06T04:53:58;9.23;56.09
73133;DHT22;61320;52.008;4.530;2023-04-06T04:56:23;9.24;55.97
73133;DHT22;61320;52.008;4.530;2023-04-06T04:58:49;9.23;56.02
73133;DHT22;61320;52.008;4.530;2023-04-06T05:01:14;9.18;56.56
73133;DHT22;61320;52.008;4.530;2023-04-06T05:03:40;9.16;56.77
73133;DHT22;61320;52.008;4.530;2023-04-06T05:06:07;9.16;57.06
73133;DHT22;61320;52.008;4.530;2023-04-06T05:08:32;9.16;57.30
73133;DHT22;61320;52.008;4.530;2023-04-06T05:10:58;9.17;57.19
73133;DHT22;61320;52.008;4.530;2023-04-06T05:13:24;9.17;57.73
73133;DHT22;61320;52.008;4.530;2023-04-06T05:15:50;9.20;57.69
73133;DHT22;61320;52.008;4.530;2023-04-06T05:18:15;9.20;57.77
73133;DHT22;61320;52.008;4.530;2023-04-06T05:20:42;9.26;57.46
73133;DHT22;61320;52.008;4.530;2023-04-06T05:23:07;9.30;57.63
73133;DHT22;61320;52.008;4.530;2023-04-06T05:25:33;9.30;57.93
73133;DHT22;61320;52.008;4.530;2023-04-06T05:27:59;9.31;58.09
73133;DHT22;61320;52.008;4.530;2023-04-06T05:30:25;9.30;58.26
73133;DHT22;61320;52.008;4.530;2023-04-06T05:32:50;9.28;58.23
73133;DHT22;61320;52.008;4.530;2023-04-06T05:35:16;9.23;58.48
73133;DHT22;61320;52.008;4.530;2023-04-06T05:37:43;9.27;58.65
73133;DHT22;61320;52.008;4.530;2023-04-06T05:40:09;9.27;58.87
73133;DHT22;61320;52.008;4.530;2023-04-06T05:42:42;9.32;59.13
73133;DHT22;61320;52.008;4.530;2023-04-06T05:45:09;9.37;59.10
73133;DHT22;61320;52.008;4.530;2023-04-06T05:47:45;9.35;59.32
73133;DHT22;61320;52.008;4.530;2023-04-06T05:50:11;9.48;59.03
73133;DHT22;61320;52.008;4.530;2023-04-06T05:52:37;9.57;59.35
73133;DHT22;61320;52.008;4.530;2023-04-06T05:55:04;9.54;59.66
73133;DHT22;61320;52.008;4.530;2023-04-06T05:57:29;9.52;59.48
73133;DHT22;61320;52.008;4.530;2023-04-06T05:59:55;9.57;59.59
73133;DHT22;61320;52.008;4.530;2023-04-06T06:02:21;9.62;59.48
73133;DHT22;61320;52.008;4.530;2023-04-06T06:04:47;9.69;59.62
73133;DHT22;61320;52.008;4.530;2023-04-06T06:07:14;9.67;59.98
73133;DHT22;61320;52.008;4.530;2023-04-06T06:09:40;9.74;59.57
73133;DHT22;61320;52.008;4.530;2023-04-06T06:12:05;9.76;59.78
73133;DHT22;61320;52.008;4.530;2023-04-06T06:14:31;9.75;59.73
73133;DHT22;61320;52.008;4.530;2023-04-06T06:16:57;9.79;60.02
73133;DHT22;61320;52.008;4.530;2023-04-06T06:19:22;9.82;60.09
73133;DHT22;61320;52.008;4.530;2023-04-06T06:21:48;9.89;59.49
73133;DHT22;61320;52.008;4.530;2023-04-06T06:24:13;9.90;59.66
73133;DHT22;61320;52.008;4.530;2023-04-06T06:26:39;9.90;60.10
73133;DHT22;61320;52.008;4.530;2023-04-06T06:29:05;10.00;60.12
73133;DHT22;61320;52.008;4.530;2023-04-06T06:31:31;10.00;59.53
73133;DHT22;61320;52.008;4.530;2023-04-06T06:33:57;9.99;60.22
73133;DHT22;61320;52.008;4.530;2023-04-06T06:36:22;10.10;60.41
73133;DHT22;61320;52.008;4.530;2023-04-06T06:38:48;10.12;60.10
73133;DHT22;61320;52.008;4.530;2023-04-06T06:41:13;10.09;60.18
73133;DHT22;61320;52.008;4.530;2023-04-06T06:43:39;10.18;60.53
73133;DHT22;61320;52.008;4.530;2023-04-06T06:46:05;10.24;60.23
73133;DHT22;61320;52.008;4.530;2023-04-06T06:48:31;10.32;59.99
73133;DHT22;61320;52.008;4.530;2023-04-06T06:50:57;10.24;59.98
73133;DHT22;61320;52.008;4.530;2023-04-06T06:53:23;10.24;60.37
73133;DHT22;61320;52.008;4.530;2023-04-06T06:55:49;10.30;60.04
73133;DHT22;61320;52.008;4.530;2023-04-06T06:58:15;10.37;60.52
73133;DHT22;61320;52.008;4.530;2023-04-06T07:00:40;10.37;60.52
73133;DHT22;61320;52.008;4.530;2023-04-06T07:03:06;10.36;60.81
73133;DHT22;61320;52.008;4.530;2023-04-06T07:05:32;10.41;60.97
73133;DHT22;61320;52.008;4.530;2023-04-06T07:07:58;10.43;61.07
73133;DHT22;61320;52.008;4.530;2023-04-06T07:10:23;10.48;61.20
73133;DHT22;61320;52.008;4.530;2023-04-06T07:12:49;10.60;61.46
73133;DHT22;61320;52.008;4.530;2023-04-06T07:15:14;10.67;61.46
73133;DHT22;61320;52.008;4.530;2023-04-06T07:17:40;10.72;61.53
73133;DHT22;61320;52.008;4.530;2023-04-06T07:20:10;10.60;61.89
73133;DHT22;61320;52.008;4.530;2023-04-06T07:22:37;10.67;62.51
73133;DHT22;61320;52.008;4.530;2023-04-06T07:25:03;10.69;62.55
73133;DHT22;61320;52.008;4.530;2023-04-06T07:27:28;10.78;62.47
73133;DHT22;61320;52.008;4.530;2023-04-06T07:29:54;10.82;62.31
73133;DHT22;61320;52.008;4.530;2023-04-06T07:32:19;10.81;63.05
73133;DHT22;61320;52.008;4.530;2023-04-06T07:34:44;10.88;63.13
73133;DHT22;61320;52.008;4.530;2023-04-06T07:37:10;10.95;63.39
73133;DHT22;61320;52.008;4.530;2023-04-06T07:39:35;11.04;64.14
73133;DHT22;61320;52.008;4.530;2023-04-06T07:42:01;11.06;64.42
73133;DHT22;61320;52.008;4.530;2023-04-06T07:44:26;11.08;65.37
73133;DHT22;61320;52.008;4.530;2023-04-06T07:46:52;11.06;65.98
73133;DHT22;61320;52.008;4.530;2023-04-06T07:49:17;11.16;65.39
73133;DHT22;61320;52.008;4.530;2023-04-06T07:51:43;11.05;65.52
73133;DHT22;61320;52.008;4.530;2023-04-06T07:54:08;11.13;66.00
73133;DHT22;61320;52.008;4.530;2023-04-06T07:56:34;11.02;65.02
73133;DHT22;61320;52.008;4.530;2023-04-06T07:58:59;10.91;65.26
73133;DHT22;61320;52.008;4.530;2023-04-06T08:01:27;10.92;65.36
73133;DHT22;61320;52.008;4.530;2023-04-06T08:03:52;10.85;65.82
73133;DHT22;61320;52.008;4.530;2023-04-06T08:06:19;10.84;65.52
73133;DHT22;61320;52.008;4.530;2023-04-06T08:08:45;10.75;66.62
73133;DHT22;61320;52.008;4.530;2023-04-06T08:11:10;10.77;67.44
73133;DHT22;61320;52.008;4.530;2023-04-06T08:13:35;10.74;67.89
73133;DHT22;61320;52.008;4.530;2023-04-06T08:16:01;10.74;68.15
73133;DHT22;61320;52.008;4.530;2023-04-06T08:18:28;10.69;68.56
73133;DHT22;61320;52.008;4.530;2023-04-06T08:20:55;10.69;68.60
73133;DHT22;61320;52.008;4.530;2023-04-06T08:23:22;10.61;68.31
73133;DHT22;61320;52.008;4.530;2023-04-06T08:25:47;10.60;69.14
73133;DHT22;61320;52.008;4.530;2023-04-06T08:28:13;10.68;68.94
73133;DHT22;61320;52.008;4.530;2023-04-06T08:30:42;10.72;69.01
73133;DHT22;61320;52.008;4.530;2023-04-06T08:33:08;10.72;68.40
73133;DHT22;61320;52.008;4.530;2023-04-06T08:35:34;10.63;68.46
73133;DHT22;61320;52.008;4.530;2023-04-06T08:37:59;10.65;68.96
73133;DHT22;61320;52.008;4.530;2023-04-06T08:40:25;10.58;68.73
73133;DHT22;61320;52.008;4.530;2023-04-06T08:42:55;10.65;69.59
73133;DHT22;61320;52.008;4.530;2023-04-06T08:45:22;10.74;68.95
73133;DHT22;61320;52.008;4.530;2023-04-06T08:47:51;10.81;69.24
73133;DHT22;61320;52.008;4.530;2023-04-06T08:50:18;10.81;68.46
73133;DHT22;61320;52.008;4.530;2023-04-06T08:52:47;10.88;69.35
73133;DHT22;61320;52.008;4.530;2023-04-06T08:55:13;10.72;69.83
73133;DHT22;61320;52.008;4.530;2023-04-06T08:57:39;10.68;70.51
73133;DHT22;61320;52.008;4.530;2023-04-06T09:00:07;10.72;70.80
73133;DHT22;61320;52.008;4.530;2023-04-06T09:02:38;10.60;70.78
73133;DHT22;61320;52.008;4.530;2023-04-06T09:05:04;10.48;71.02
73133;DHT22;61320;52.008;4.530;2023-04-06T09:07:30;10.47;71.67
73133;DHT22;61320;52.008;4.530;2023-04-06T09:09:56;10.36;71.79
73133;DHT22;61320;52.008;4.530;2023-04-06T09:12:26;10.24;70.89
73133;DHT22;61320;52.008;4.530;2023-04-06T09:14:53;10.24;71.56
73133;DHT22;61320;52.008;4.530;2023-04-06T09:17:23;10.24;72.22
73133;DHT22;61320;52.008;4.530;2023-04-06T09:19:49;10.37;72.53
73133;DHT22;61320;52.008;4.530;2023-04-06T09:22:15;10.41;71.53
73133;DHT22;61320;52.008;4.530;2023-04-06T09:24:49;10.41;71.98
73133;DHT22;61320;52.008;4.530;2023-04-06T09:27:15;10.47;72.21
73133;DHT22;61320;52.008;4.530;2023-04-06T09:29:42;10.48;72.08
73133;DHT22;61320;52.008;4.530;2023-04-06T09:32:09;10.41;72.74
73133;DHT22;61320;52.008;4.530;2023-04-06T09:34:42;10.33;74.24
73133;DHT22;61320;52.008;4.530;2023-04-06T09:37:15;10.18;73.74
73133;DHT22;61320;52.008;4.530;2023-04-06T09:39:41;10.14;75.10
73133;DHT22;61320;52.008;4.530;2023-04-06T09:42:07;10.17;75.89
73133;DHT22;61320;52.008;4.530;2023-04-06T09:44:33;10.21;75.57
73133;DHT22;61320;52.008;4.530;2023-04-06T09:46:58;10.17;76.46
73133;DHT22;61320;52.008;4.530;2023-04-06T09:49:27;10.12;75.87
73133;DHT22;61320;52.008;4.530;2023-04-06T09:51:59;9.97;76.73
73133;DHT22;61320;52.008;4.530;2023-04-06T09:54:29;10.09;76.54
73133;DHT22;61320;52.008;4.530;2023-04-06T09:59:50;10.00;77.35
73133;DHT22;61320;52.008;4.530;2023-04-06T10:02:30;9.90;77.59
73133;DHT22;61320;52.008;4.530;2023-04-06T10:05:05;9.79;78.20
73133;DHT22;61320;52.008;4.530;2023-04-06T10:07:33;9.74;78.48
73133;DHT22;61320;52.008;4.530;2023-04-06T10:10:02;9.72;78.92
73133;DHT22;61320;52.008;4.530;2023-04-06T10:12:28;9.74;79.67
73133;DHT22;61320;52.008;4.530;2023-04-06T10:14:55;9.68;79.70
73133;DHT22;61320;52.008;4.530;2023-04-06T10:17:21;9.71;79.75
73133;DHT22;61320;52.008;4.530;2023-04-06T10:19:59;9.68;80.33
73133;DHT22;61320;52.008;4.530;2023-04-06T10:22:39;9.63;80.80
73133;DHT22;61320;52.008;4.530;2023-04-06T10:25:08;9.58;80.81
73133;DHT22;61320;52.008;4.530;2023-04-06T10:27:33;9.54;81.00
73133;DHT22;61320;52.008;4.530;2023-04-06T10:30:05;9.48;81.25
73133;DHT22;61320;52.008;4.530;2023-04-06T10:32:38;9.51;81.31
73133;DHT22;61320;52.008;4.530;2023-04-06T10:35:11;9.59;81.32
73133;DHT22;61320;52.008;4.530;2023-04-06T10:40:23;9.47;82.13
73133;DHT22;61320;52.008;4.530;2023-04-06T10:42:54;9.48;82.10
73133;DHT22;61320;52.008;4.530;2023-04-06T10:45:25;9.49;82.20
73133;DHT22;61320;52.008;4.530;2023-04-06T10:47:54;9.47;82.51
73133;DHT22;61320;52.008;4.530;2023-04-06T10:50:21;9.58;82.59
73133;DHT22;61320;52.008;4.530;2023-04-06T10:52:58;9.51;82.31
73133;DHT22;61320;52.008;4.530;2023-04-06T10:55:25;9.49;82.75
73133;DHT22;61320;52.008;4.530;2023-04-06T10:57:51;9.61;83.26
73133;DHT22;61320;52.008;4.530;2023-04-06T11:00:17;9.58;83.17
73133;DHT22;61320;52.008;4.530;2023-04-06T11:02:44;9.57;83.04
73133;DHT22;61320;52.008;4.530;2023-04-06T11:05:11;9.59;83.13
73133;DHT22;61320;52.008;4.530;2023-04-06T11:07:37;9.63;83.00
73133;DHT22;61320;52.008;4.530;2023-04-06T11:10:07;9.69;82.74
73133;DHT22;61320;52.008;4.530;2023-04-06T11:12:33;9.63;82.65
73133;DHT22;61320;52.008;4.530;2023-04-06T11:15:00;9.67;82.90
73133;DHT22;61320;52.008;4.530;2023-04-06T11:17:36;9.71;83.07
73133;DHT22;61320;52.008;4.530;2023-04-06T11:20:03;9.61;83.65
73133;DHT22;61320;52.008;4.530;2023-04-06T11:22:30;9.63;83.44
73133;DHT22;61320;52.008;4.530;2023-04-06T11:25:08;9.74;83.99
73133;DHT22;61320;52.008;4.530;2023-04-06T11:27:34;9.74;83.79
73133;DHT22;61320;52.008;4.530;2023-04-06T11:30:01;9.72;83.85
73133;DHT22;61320;52.008;4.530;2023-04-06T11:32:27;9.75;83.75
73133;DHT22;61320;52.008;4.530;2023-04-06T11:34:53;9.67;83.31
73133;DHT22;61320;52.008;4.530;2023-04-06T11:37:18;9.59;83.61
73133;DHT22;61320;52.008;4.530;2023-04-06T11:39:49;9.62;83.92
73133;DHT22;61320;52.008;4.530;2023-04-06T11:42:28;9.65;84.28
73133;DHT22;61320;52.008;4.530;2023-04-06T11:44:58;9.65;83.93
73133;DHT22;61320;52.008;4.530;2023-04-06T11:47:30;9.69;84.04
73133;DHT22;61320;52.008;4.530;2023-04-06T11:49:55;9.59;83.67
73133;DHT22;61320;52.008;4.530;2023-04-06T11:52:26;9.58;84.09
73133;DHT22;61320;52.008;4.530;2023-04-06T11:54:53;9.62;84.38
73133;DHT22;61320;52.008;4.530;2023-04-06T11:57:21;9.61;84.56
73133;DHT22;61320;52.008;4.530;2023-04-06T11:59:49;9.68;84.51
73133;DHT22;61320;52.008;4.530;2023-04-06T12:02:15;9.75;84.36
73133;DHT22;61320;52.008;4.530;2023-04-06T12:04:40;9.69;84.20
73133;DHT22;61320;52.008;4.530;2023-04-06T12:07:06;9.69;84.12
73133;DHT22;61320;52.008;4.530;2023-04-06T12:09:32;9.65;84.04
73133;DHT22;61320;52.008;4.530;2023-04-06T12:11:59;9.63;83.98
73133;DHT22;61320;52.008;4.530;2023-04-06T12:14:25;9.75;84.23
73133;DHT22;61320;52.008;4.530;2023-04-06T12:16:51;9.72;83.85
73133;DHT22;61320;52.008;4.530;2023-04-06T12:19:17;9.79;84.23
73133;DHT22;61320;52.008;4.530;2023-04-06T12:21:42;9.62;84.13
73133;DHT22;61320;52.008;4.530;2023-04-06T12:24:08;9.67;84.23
73133;DHT22;61320;52.008;4.530;2023-04-06T12:26:34;9.67;84.75
73133;DHT22;61320;52.008;4.530;2023-04-06T12:29:00;9.76;84.50
73133;DHT22;61320;52.008;4.530;2023-04-06T12:31:34;9.71;84.36
73133;DHT22;61320;52.008;4.530;2023-04-06T12:34:00;9.81;84.63
73133;DHT22;61320;52.008;4.530;2023-04-06T12:36:27;9.82;84.61
73133;DHT22;61320;52.008;4.530;2023-04-06T12:38:53;9.76;84.33
73133;DHT22;61320;52.008;4.530;2023-04-06T12:41:18;9.78;84.19
73133;DHT22;61320;52.008;4.530;2023-04-06T12:43:44;9.65;84.40
73133;DHT22;61320;52.008;4.530;2023-04-06T12:46:11;9.68;84.42
73133;DHT22;61320;52.008;4.530;2023-04-06T12:48:36;9.68;84.12
73133;DHT22;61320;52.008;4.530;2023-04-06T12:51:04;9.59;84.71
73133;DHT22;61320;52.008;4.530;2023-04-06T12:53:31;9.49;84.50
73133;DHT22;61320;52.008;4.530;2023-04-06T12:55:58;9.41;85.15
73133;DHT22;61320;52.008;4.530;2023-04-06T12:58:24;9.57;85.13
73133;DHT22;61320;52.008;4.530;2023-04-06T13:00:52;9.58;84.86
73133;DHT22;61320;52.008;4.530;2023-04-06T13:03:19;9.63;84.96
73133;DHT22;61320;52.008;4.530;2023-04-06T13:05:55;9.68;84.67
73133;DHT22;61320;52.008;4.530;2023-04-06T13:08:20;9.74;84.94
73133;DHT22;61320;52.008;4.530;2023-04-06T13:10:51;9.65;84.81
73133;DHT22;61320;52.008;4.530;2023-04-06T13:13:23;9.58;84.77
73133;DHT22;61320;52.008;4.530;2023-04-06T13:15:49;9.59;85.11
73133;DHT22;61320;52.008;4.530;2023-04-06T13:18:14;9.65;84.95
73133;DHT22;61320;52.008;4.530;2023-04-06T13:20:41;9.65;85.28
73133;DHT22;61320;52.008;4.530;2023-04-06T13:23:07;9.72;85.02
73133;DHT22;61320;52.008;4.530;2023-04-06T13:25:32;9.69;84.86
73133;DHT22;61320;52.008;4.530;2023-04-06T13:27:58;9.72;84.88
73133;DHT22;61320;52.008;4.530;2023-04-06T13:30:24;9.75;85.04
73133;DHT22;61320;52.008;4.530;2023-04-06T13:32:50;9.72;84.78
73133;DHT22;61320;52.008;4.530;2023-04-06T13:35:16;9.69;85.02
73133;DHT22;61320;52.008;4.530;2023-04-06T13:37:42;9.72;85.08
73133;DHT22;61320;52.008;4.530;2023-04-06T13:40:08;9.69;85.05
73133;DHT22;61320;52.008;4.530;2023-04-06T13:42:34;9.79;85.04
73133;DHT22;61320;52.008;4.530;2023-04-06T13:45:01;9.85;84.81
73133;DHT22;61320;52.008;4.530;2023-04-06T13:47:27;9.85;84.93
73133;DHT22;61320;52.008;4.530;2023-04-06T13:49:53;9.88;84.78
73133;DHT22;61320;52.008;4.530;2023-04-06T13:52:19;9.95;84.91
73133;DHT22;61320;52.008;4.530;2023-04-06T13:54:45;9.89;84.68
73133;DHT22;61320;52.008;4.530;2023-04-06T13:57:11;9.88;84.68
73133;DHT22;61320;52.008;4.530;2023-04-06T13:59:38;9.97;85.12
73133;DHT22;61320;52.008;4.530;2023-04-06T14:02:06;9.97;85.32
73133;DHT22;61320;52.008;4.530;2023-04-06T14:04:33;10.00;85.14
73133;DHT22;61320;52.008;4.530;2023-04-06T14:07:00;10.03;85.28
73133;DHT22;61320;52.008;4.530;2023-04-06T14:09:26;10.05;85.13
73133;DHT22;61320;52.008;4.530;2023-04-06T14:11:51;9.95;84.88
73133;DHT22;61320;52.008;4.530;2023-04-06T14:14:17;9.92;85.34
73133;DHT22;61320;52.008;4.530;2023-04-06T14:16:43;9.93;85.12
73133;DHT22;61320;52.008;4.530;2023-04-06T14:19:10;9.99;85.23
73133;DHT22;61320;52.008;4.530;2023-04-06T14:21:43;10.09;85.20
73133;DHT22;61320;52.008;4.530;2023-04-06T14:24:10;10.10;85.20
73133;DHT22;61320;52.008;4.530;2023-04-06T14:26:36;10.05;85.31
73133;DHT22;61320;52.008;4.530;2023-04-06T14:29:03;10.14;85.14
73133;DHT22;61320;52.008;4.530;2023-04-06T14:31:29;10.20;84.93
73133;DHT22;61320;52.008;4.530;2023-04-06T14:33:55;10.14;84.80
73133;DHT22;61320;52.008;4.530;2023-04-06T14:36:20;10.17;84.84
73133;DHT22;61320;52.008;4.530;2023-04-06T14:38:46;10.18;84.70
73133;DHT22;61320;52.008;4.530;2023-04-06T14:41:16;10.18;84.93
73133;DHT22;61320;52.008;4.530;2023-04-06T14:43:43;10.23;84.68
73133;DHT22;61320;52.008;4.530;2023-04-06T14:46:09;10.21;84.80
73133;DHT22;61320;52.008;4.530;2023-04-06T14:48:35;10.20;84.78
73133;DHT22;61320;52.008;4.530;2023-04-06T14:51:01;10.16;85.17
73133;DHT22;61320;52.008;4.530;2023-04-06T14:53:27;10.16;85.21
73133;DHT22;61320;52.008;4.530;2023-04-06T14:55:53;10.17;84.98
73133;DHT22;61320;52.008;4.530;2023-04-06T14:58:19;10.10;85.18
73133;DHT22;61320;52.008;4.530;2023-04-06T15:00:46;10.13;85.28
73133;DHT22;61320;52.008;4.530;2023-04-06T15:03:11;10.21;85.36
73133;DHT22;61320;52.008;4.530;2023-04-06T15:05:37;10.24;84.95
73133;DHT22;61320;52.008;4.530;2023-04-06T15:08:02;10.29;85.01
73133;DHT22;61320;52.008;4.530;2023-04-06T15:10:31;10.21;85.27
73133;DHT22;61320;52.008;4.530;2023-04-06T15:12:57;10.23;85.02
73133;DHT22;61320;52.008;4.530;2023-04-06T15:15:22;10.29;85.20
73133;DHT22;61320;52.008;4.530;2023-04-06T15:17:48;10.32;85.28
73133;DHT22;61320;52.008;4.530;2023-04-06T15:20:13;10.37;84.79
73133;DHT22;61320;52.008;4.530;2023-04-06T15:22:39;10.40;84.87
73133;DHT22;61320;52.008;4.530;2023-04-06T15:25:04;10.43;85.00
73133;DHT22;61320;52.008;4.530;2023-04-06T15:27:30;10.44;84.76
73133;DHT22;61320;52.008;4.530;2023-04-06T15:29:56;10.48;84.63
73133;DHT22;61320;52.008;4.530;2023-04-06T15:32:23;10.47;84.56
73133;DHT22;61320;52.008;4.530;2023-04-06T15:34:49;10.43;84.82
73133;DHT22;61320;52.008;4.530;2023-04-06T15:37:14;10.47;84.89
73133;DHT22;61320;52.008;4.530;2023-04-06T15:39:40;10.51;84.75
73133;DHT22;61320;52.008;4.530;2023-04-06T15:42:05;10.60;84.60